Time;durP1;ratioP1;P1;durP2;ratioP2;P2;SDS_P1;SDS_P2;PMS_P1;PMS_P2;Temp;Humidity;BMP_temperature;BMP_pressure;BME280_temperature;BME280_humidity;BME280_pressure;Samples;Min_cycle;Max_cycle;Signal;HPM_P1;HPM_P2
2021/10/22 00:00:31;;;;;;;11.33;5.55;;;;;;;18.65;58.25;101285.86;1740972;82;21062;-50
2021/10/22 00:02:57;;;;;;;9.13;5.20;;;;;;;18.65;58.28;101290.27;1738247;82;21542;-51
2021/10/22 00:05:24;;;;;;;10.53;5.10;;;;;;;18.64;58.27;101282.86;1739528;82;21019;-54
2021/10/22 00:07:51;;;;;;;7.25;4.95;;;;;;;18.64;58.18;101285.95;1740539;81;21065;-55
2021/10/22 00:10:19;;;;;;;7.95;5.00;;;;;;;18.62;58.22;101281.20;1734107;82;21487;-55
2021/10/22 00:12:47;;;;;;;9.18;5.28;;;;;;;18.60;58.21;101281.75;1738106;81;21562;-49
2021/10/22 00:15:14;;;;;;;10.25;4.97;;;;;;;18.58;58.16;101283.59;1738323;81;21025;-51
2021/10/22 00:17:41;;;;;;;7.40;5.00;;;;;;;18.57;58.11;101282.73;1739333;82;21026;-49
2021/10/22 00:20:09;;;;;;;12.95;6.17;;;;;;;18.55;58.16;101279.77;1741197;82;21023;-50
2021/10/22 00:22:37;;;;;;;9.15;5.67;;;;;;;18.53;58.12;101275.03;1741289;82;20983;-51
2021/10/22 00:25:05;;;;;;;10.55;5.72;;;;;;;18.51;58.04;101274.25;1738657;82;21322;-51
2021/10/22 00:27:32;;;;;;;11.03;5.28;;;;;;;18.48;58.13;101269.14;1739057;82;21026;-50
2021/10/22 00:29:59;;;;;;;10.63;5.22;;;;;;;18.45;58.11;101265.31;1732166;82;21031;-51
2021/10/22 00:32:27;;;;;;;10.90;5.30;;;;;;;18.44;58.15;101270.20;1738175;82;21046;-51
2021/10/22 00:34:53;;;;;;;10.98;5.92;;;;;;;18.42;58.16;101265.44;1739028;82;21050;-51
2021/10/22 00:37:21;;;;;;;10.40;5.92;;;;;;;18.41;58.16;101266.34;1739007;82;21054;-51
2021/10/22 00:39:48;;;;;;;10.63;5.47;;;;;;;18.40;58.19;101272.55;1739567;82;21038;-51
2021/10/22 00:42:16;;;;;;;8.83;5.67;;;;;;;18.39;58.21;101275.64;1738911;82;21518;-51
2021/10/22 00:44:42;;;;;;;10.90;5.45;;;;;;;18.38;58.10;101278.36;1741411;82;21078;-52
2021/10/22 00:47:09;;;;;;;11.65;5.70;;;;;;;18.37;58.10;101275.31;1735658;82;21003;-49
2021/10/22 00:49:36;;;;;;;11.20;5.33;;;;;;;18.35;58.07;101271.89;1738151;81;21050;-48
2021/10/22 00:52:05;;;;;;;8.55;5.47;;;;;;;18.34;58.14;101270.20;1737798;82;21007;-50
2021/10/22 00:54:32;;;;;;;7.28;5.42;;;;;;;18.32;58.11;101269.42;1734002;81;21018;-50
2021/10/22 00:56:59;;;;;;;9.40;5.90;;;;;;;18.30;58.09;101262.05;1741137;82;21490;-50
2021/10/22 00:59:26;;;;;;;9.43;6.05;;;;;;;18.29;58.14;101274.81;1740993;82;21035;-51
2021/10/22 01:01:52;;;;;;;9.60;6.12;;;;;;;18.28;57.97;101275.75;1738316;82;21014;-52
2021/10/22 01:04:19;;;;;;;8.93;6.15;;;;;;;18.26;57.99;101273.65;1737925;81;21042;-50
2021/10/22 01:06:46;;;;;;;9.53;6.20;;;;;;;18.25;57.94;101274.11;1737613;82;20998;-50
2021/10/22 01:09:12;;;;;;;10.15;6.35;;;;;;;18.23;57.91;101271.14;1738561;81;21074;-51
2021/10/22 01:11:40;;;;;;;9.58;5.85;;;;;;;18.23;57.79;101271.14;1738479;82;21006;-55
2021/10/22 01:14:08;;;;;;;8.35;6.03;;;;;;;18.21;57.61;101265.09;1734655;82;20997;-51
2021/10/22 01:16:39;;;;;;;7.62;5.80;;;;;;;18.20;57.62;101265.99;1741160;82;21034;-51
2021/10/22 01:19:07;;;;;;;9.43;5.60;;;;;;;18.16;57.58;101271.00;1740516;82;21559;-50
2021/10/22 01:21:33;;;;;;;9.55;6.37;;;;;;;18.15;57.51;101264.05;1738299;82;21014;-50
2021/10/22 01:24:00;;;;;;;9.70;6.33;;;;;;;17.97;57.98;101258.28;1737371;82;21028;-50
2021/10/22 01:26:27;;;;;;;9.25;6.08;;;;;;;17.88;58.09;101269.62;1744905;82;21463;-49
2021/10/22 01:28:53;;;;;;;11.70;6.65;;;;;;;17.85;58.11;101262.29;1737930;82;20994;-50
2021/10/22 01:31:21;;;;;;;7.45;5.42;;;;;;;17.83;58.16;101265.00;1738660;82;21011;-51
2021/10/22 01:33:49;;;;;;;9.18;5.83;;;;;;;18.00;57.67;101269.98;1734895;82;21074;-52
2021/10/22 01:36:17;;;;;;;13.68;5.90;;;;;;;18.03;57.37;101272.50;1729191;82;21041;-50
2021/10/22 01:38:44;;;;;;;8.08;6.00;;;;;;;18.02;57.40;101276.90;1735462;82;21105;-49
2021/10/22 01:41:10;;;;;;;9.38;5.95;;;;;;;18.00;57.37;101283.15;1734781;82;21511;-49
2021/10/22 01:43:40;;;;;;;7.83;6.40;;;;;;;18.01;57.30;101291.45;1732902;82;21019;-52
2021/10/22 01:46:06;;;;;;;11.97;6.28;;;;;;;17.98;57.27;101292.44;1731397;82;21034;-50
2021/10/22 01:48:33;;;;;;;10.38;6.60;;;;;;;17.97;57.23;101285.45;1731080;82;20998;-50
2021/10/22 01:50:59;;;;;;;9.60;6.67;;;;;;;17.96;57.21;101292.97;1737748;82;21523;-50
2021/10/22 01:53:26;;;;;;;8.65;6.42;;;;;;;17.94;57.17;101288.23;1734631;82;21042;-51
2021/10/22 01:55:53;;;;;;;7.28;5.85;;;;;;;17.94;57.08;101287.37;1719913;82;21014;-51
2021/10/22 01:58:22;;;;;;;9.58;6.70;;;;;;;17.93;57.03;101292.25;1731533;82;21082;-51
2021/10/22 02:00:50;;;;;;;10.53;6.30;;;;;;;17.93;56.95;101296.20;1731184;82;20999;-51
2021/10/22 02:03:17;;;;;;;9.13;6.65;;;;;;;17.92;56.85;101290.08;1739133;82;21039;-50
2021/10/22 02:05:43;;;;;;;7.42;5.95;;;;;;;17.91;56.77;101305.95;1732917;82;20987;-51
2021/10/22 02:08:10;;;;;;;7.37;6.08;;;;;;;17.89;56.71;101306.85;1732593;82;21543;-51
2021/10/22 02:10:37;;;;;;;10.18;6.37;;;;;;;17.88;56.73;101304.30;1733688;82;21031;-52
2021/10/22 02:13:04;;;;;;;7.97;6.25;;;;;;;17.84;56.65;101303.58;1735595;82;21035;-50
2021/10/22 02:15:30;;;;;;;9.70;6.55;;;;;;;17.83;56.61;101307.57;1731725;82;21073;-51
2021/10/22 02:17:57;;;;;;;7.25;6.53;;;;;;;17.81;56.50;101303.70;1727494;82;21034;-51
2021/10/22 02:20:24;;;;;;;9.25;6.58;;;;;;;17.81;56.40;101301.52;1732628;82;21010;-51
2021/10/22 02:22:50;;;;;;;8.65;6.22;;;;;;;17.78;56.26;101295.91;1733219;82;20983;-50
2021/10/22 02:25:18;;;;;;;8.83;6.08;;;;;;;17.75;56.24;101302.64;1735680;82;21034;-51
2021/10/22 02:27:45;;;;;;;7.53;6.12;;;;;;;17.72;56.23;101301.44;1733786;82;21014;-50
2021/10/22 02:30:11;;;;;;;10.10;7.42;;;;;;;17.69;56.24;101313.44;1733903;82;21038;-49
2021/10/22 02:32:40;;;;;;;7.28;6.58;;;;;;;17.67;56.15;101311.33;1734778;82;21061;-54
2021/10/22 02:35:08;;;;;;;7.40;6.70;;;;;;;17.65;56.25;101310.54;1740960;82;21093;-54
2021/10/22 02:37:34;;;;;;;7.62;6.90;;;;;;;17.60;56.24;101312.49;1741059;82;21534;-50
2021/10/22 02:40:01;;;;;;;10.88;7.30;;;;;;;17.61;56.12;101308.95;1739048;82;21487;-50
2021/10/22 02:42:28;;;;;;;9.78;7.28;;;;;;;17.59;55.97;101304.67;1738340;81;20983;-49
2021/10/22 02:44:55;;;;;;;8.00;7.20;;;;;;;17.55;55.97;101301.31;1737834;82;21483;-50
2021/10/22 02:47:21;;;;;;;11.83;7.80;;;;;;;17.37;56.34;101302.50;1738533;81;20975;-49
2021/10/22 02:49:48;;;;;;;13.80;7.47;;;;;;;17.28;56.44;101305.05;1738021;82;21046;-51
2021/10/22 02:52:14;;;;;;;10.35;7.72;;;;;;;17.25;56.50;101308.27;1740936;81;21474;-51
2021/10/22 02:54:41;;;;;;;9.58;7.22;;;;;;;17.23;56.52;101300.41;1741175;82;20987;-48
2021/10/22 02:57:08;;;;;;;8.45;7.60;;;;;;;17.19;56.57;101304.09;1737043;82;21066;-50
2021/10/22 02:59:35;;;;;;;8.40;7.53;;;;;;;17.17;56.39;101308.55;1731872;82;21070;-50
2021/10/22 03:02:02;;;;;;;9.80;8.35;;;;;;;17.14;56.39;101315.27;1737813;82;21062;-50
2021/10/22 03:04:29;;;;;;;9.13;7.80;;;;;;;17.13;56.33;101317.48;1739370;82;20979;-50
2021/10/22 03:06:55;;;;;;;7.75;6.95;;;;;;;17.09;56.26;101314.58;1741349;82;21079;-49
2021/10/22 03:09:22;;;;;;;8.75;7.42;;;;;;;17.06;56.27;101321.29;1741094;82;20974;-49
2021/10/22 03:11:49;;;;;;;10.53;7.62;;;;;;;17.04;56.23;101330.53;1745008;82;21526;-50
2021/10/22 03:14:18;;;;;;;11.50;9.20;;;;;;;16.99;56.29;101329.87;1738827;82;21501;-51
2021/10/22 03:16:44;;;;;;;9.93;7.90;;;;;;;16.96;56.47;101326.52;1729968;82;21031;-50
2021/10/22 03:19:11;;;;;;;15.15;8.10;;;;;;;16.94;56.48;101317.80;1734772;82;21049;-49
2021/10/22 03:21:39;;;;;;;9.40;7.40;;;;;;;16.92;56.30;101309.98;1734891;82;21483;-50
2021/10/22 03:24:06;;;;;;;9.50;8.18;;;;;;;16.90;56.29;101313.58;1737770;82;21086;-50
2021/10/22 03:26:33;;;;;;;8.13;7.33;;;;;;;16.87;56.28;101313.72;1737821;82;21018;-50
2021/10/22 03:29:00;;;;;;;9.20;8.25;;;;;;;16.84;56.29;101325.64;1739652;81;21527;-51
2021/10/22 03:31:28;;;;;;;11.30;8.35;;;;;;;16.81;56.30;101324.47;1741066;82;21085;-50
2021/10/22 03:33:56;;;;;;;8.88;7.87;;;;;;;16.79;56.32;101331.55;1739194;82;21482;-50
2021/10/22 03:36:23;;;;;;;9.73;8.40;;;;;;;16.96;55.82;101334.40;1733644;82;21082;-50
2021/10/22 03:38:50;;;;;;;8.90;7.87;;;;;;;17.00;55.75;101333.36;1732878;82;21122;-48
2021/10/22 03:41:17;;;;;;;9.50;8.50;;;;;;;16.98;55.70;101334.72;1722405;82;21027;-51
2021/10/22 03:43:44;;;;;;;10.03;8.63;;;;;;;16.98;55.50;101331.25;1735531;82;21062;-50
2021/10/22 03:46:11;;;;;;;8.88;7.95;;;;;;;16.98;55.46;101329.94;1739325;82;21011;-48
2021/10/22 03:48:38;;;;;;;11.30;8.85;;;;;;;16.96;55.43;101326.52;1734043;82;21078;-51
2021/10/22 03:51:06;;;;;;;13.03;9.08;;;;;;;16.97;55.27;101333.47;1734768;82;21034;-50
2021/10/22 03:53:33;;;;;;;12.23;9.10;;;;;;;16.94;55.24;101331.81;1735469;82;21023;-50
2021/10/22 03:56:00;;;;;;;11.20;8.45;;;;;;;16.94;55.17;101333.57;1735581;82;21507;-50
2021/10/22 03:58:27;;;;;;;11.45;9.13;;;;;;;16.92;55.10;101328.37;1732695;82;21027;-49
2021/10/22 04:00:53;;;;;;;9.88;8.88;;;;;;;16.90;55.00;101330.66;1732627;82;21511;-51
2021/10/22 04:03:20;;;;;;;10.35;8.45;;;;;;;16.86;55.04;101337.82;1723878;82;21007;-50
2021/10/22 04:05:47;;;;;;;10.28;8.98;;;;;;;16.84;55.00;101337.47;1734875;82;21030;-49
2021/10/22 04:08:16;;;;;;;11.63;9.48;;;;;;;16.82;55.02;101331.42;1732876;82;21066;-50
2021/10/22 04:10:43;;;;;;;12.00;9.18;;;;;;;16.81;54.90;101332.34;1732029;82;21468;-51
2021/10/22 04:13:11;;;;;;;11.12;8.83;;;;;;;16.77;54.88;101347.39;1732786;82;20975;-50
2021/10/22 04:15:40;;;;;;;9.83;8.83;;;;;;;16.75;54.77;101355.78;1732868;82;21038;-51
2021/10/22 04:18:08;;;;;;;11.53;9.28;;;;;;;16.75;54.75;101349.67;1732227;82;21498;-52
2021/10/22 04:20:34;;;;;;;10.50;9.40;;;;;;;16.50;55.31;101347.55;1735065;82;21612;-50
2021/10/22 04:23:01;;;;;;;15.30;10.20;;;;;;;16.46;55.54;101344.59;1735870;82;20979;-48
2021/10/22 04:25:28;;;;;;;10.18;9.18;;;;;;;16.45;55.65;101350.30;1731253;82;21128;-50
2021/10/22 04:27:55;;;;;;;10.50;9.43;;;;;;;16.44;55.58;101364.36;1732468;82;21060;-50
2021/10/22 04:30:22;;;;;;;11.33;9.00;;;;;;;16.40;55.70;101357.95;1720993;82;20983;-50
2021/10/22 04:32:48;;;;;;;10.90;9.80;;;;;;;16.37;55.80;101360.67;1735664;82;20995;-51
2021/10/22 04:35:15;;;;;;;14.93;9.85;;;;;;;16.35;55.84;101358.56;1732966;82;21014;-50
2021/10/22 04:38:00;;;;;;;11.55;10.35;;;;;;;16.34;55.85;101359.48;1732074;82;20991;-50
2021/10/22 04:40:32;;;;;;;11.18;9.88;;;;;;;16.32;55.78;101358.69;1728575;82;21054;-50
2021/10/22 04:43:12;;;;;;;10.15;9.15;;;;;;;16.30;55.83;101353.02;1732332;82;21027;-50
2021/10/22 04:45:40;;;;;;;12.45;9.73;;;;;;;16.32;55.79;101356.06;1722155;82;21046;-50
2021/10/22 04:48:10;;;;;;;11.70;9.68;;;;;;;16.29;55.80;101365.77;1734710;82;21030;-48
2021/10/22 04:50:48;;;;;;;10.60;9.48;;;;;;;16.28;55.82;101382.41;1731622;82;21363;-49
2021/10/22 04:53:14;;;;;;;10.35;9.10;;;;;;;16.24;55.75;101380.81;1735828;82;21038;-50
2021/10/22 04:55:41;;;;;;;12.30;9.50;;;;;;;16.18;55.87;101374.46;1735686;82;21003;-48
2021/10/22 04:58:08;;;;;;;12.53;9.75;;;;;;;16.29;55.66;101381.52;1733940;82;21043;-51
2021/10/22 05:00:35;;;;;;;10.28;9.28;;;;;;;16.37;55.43;101384.31;1723692;82;21027;-50
2021/10/22 05:03:01;;;;;;;10.65;9.55;;;;;;;16.40;55.42;101381.14;1735918;82;21037;-49
2021/10/22 05:05:29;;;;;;;12.10;10.80;;;;;;;16.43;55.35;101388.03;1735928;82;21606;-50
2021/10/22 05:07:56;;;;;;;11.20;10.03;;;;;;;16.45;55.33;101390.15;1731543;82;21058;-50
2021/10/22 05:10:24;;;;;;;11.95;10.15;;;;;;;16.45;55.23;101396.72;1735919;82;21031;-51
2021/10/22 05:12:51;;;;;;;12.40;10.20;;;;;;;16.47;55.14;101405.39;1735720;82;21485;-53
2021/10/22 05:15:17;;;;;;;12.73;10.30;;;;;;;16.50;55.00;101397.45;1733673;82;20967;-50
2021/10/22 05:17:44;;;;;;;13.58;10.25;;;;;;;16.50;55.05;101397.45;1732764;82;21039;-49
2021/10/22 05:20:12;;;;;;;11.22;10.13;;;;;;;16.50;54.97;101406.65;1727627;82;21499;-49
2021/10/22 05:22:39;;;;;;;13.55;10.82;;;;;;;16.49;54.99;101400.53;1734788;82;20979;-50
2021/10/22 05:25:08;;;;;;;12.98;10.05;;;;;;;16.52;54.97;101404.83;1731733;82;21058;-50
2021/10/22 05:27:36;;;;;;;13.70;10.43;;;;;;;16.53;54.98;101409.15;1727855;82;21545;-49
2021/10/22 05:30:05;;;;;;;11.83;10.50;;;;;;;16.54;55.12;101408.25;1733087;82;21062;-49
2021/10/22 05:32:33;;;;;;;11.75;10.08;;;;;;;16.56;55.12;101410.37;1727126;82;21010;-49
2021/10/22 05:35:00;;;;;;;11.38;10.25;;;;;;;16.58;55.00;101412.48;1736553;82;21522;-50
2021/10/22 05:37:26;;;;;;;11.08;9.98;;;;;;;16.59;54.89;101420.78;1737668;81;21545;-50
2021/10/22 05:39:53;;;;;;;12.00;10.23;;;;;;;16.59;54.99;101427.36;1738226;82;21086;-50
2021/10/22 05:42:20;;;;;;;12.73;10.53;;;;;;;16.57;54.92;101437.89;1738583;82;21058;-49
2021/10/22 05:44:47;;;;;;;12.23;10.32;;;;;;;16.55;54.96;101445.45;1733702;82;21102;-51
2021/10/22 05:47:15;;;;;;;11.43;10.32;;;;;;;16.55;54.95;101450.70;1736641;82;21538;-50
2021/10/22 05:49:43;;;;;;;15.18;11.15;;;;;;;16.50;55.16;101446.05;1738291;82;21019;-49
2021/10/22 05:52:10;;;;;;;11.40;10.08;;;;;;;16.45;55.41;101446.17;1737978;82;21058;-49
2021/10/22 05:54:38;;;;;;;10.98;9.88;;;;;;;16.43;55.52;101451.94;1738246;81;21054;-50
2021/10/22 05:57:05;;;;;;;10.25;8.93;;;;;;;16.43;55.76;101453.70;1739478;82;21546;-50
2021/10/22 05:59:31;;;;;;;11.48;10.05;;;;;;;16.48;55.84;101466.23;1741374;82;21066;-49
2021/10/22 06:01:59;;;;;;;11.30;10.08;;;;;;;16.45;56.01;101463.25;1740922;82;21070;-50
2021/10/22 06:04:26;;;;;;;11.68;10.50;;;;;;;16.43;56.20;101461.58;1738313;82;21526;-47
2021/10/22 06:06:53;;;;;;;14.18;11.45;;;;;;;16.50;56.02;101469.25;1739686;81;21026;-49
2021/10/22 06:09:19;;;;;;;12.37;11.12;;;;;;;16.57;55.92;101460.70;1740680;81;21023;-49
2021/10/22 06:11:49;;;;;;;16.85;12.43;;;;;;;16.64;55.86;101466.12;1741428;82;20963;-50
2021/10/22 06:14:16;;;;;;;12.82;11.53;;;;;;;16.70;55.86;101479.05;1739779;82;21062;-49
2021/10/22 06:16:45;;;;;;;12.78;11.28;;;;;;;16.75;55.91;101477.13;1730963;81;21043;-50
2021/10/22 06:19:16;;;;;;;13.03;11.73;;;;;;;16.81;55.90;101471.66;1733807;82;21034;-49
2021/10/22 06:24:11;;;;;;;14.47;12.28;;;;;;;16.96;55.85;101473.73;1738781;82;21050;-49
2021/10/22 06:26:42;;;;;;;12.75;11.45;;;;;;;17.03;55.74;101475.20;1726132;82;21022;-50
2021/10/22 06:29:10;;;;;;;14.10;11.78;;;;;;;17.08;55.83;101481.17;1737162;81;21010;-50
2021/10/22 06:31:38;;;;;;;11.90;10.70;;;;;;;17.18;55.91;101477.73;1741806;81;21034;-50
2021/10/22 06:34:05;;;;;;;14.30;12.18;;;;;;;17.31;55.95;101490.34;1740893;82;20962;-49
2021/10/22 06:36:32;;;;;;;14.87;11.65;;;;;;;17.46;55.95;101491.09;1721790;82;21534;-49
2021/10/22 06:38:58;;;;;;;12.88;11.50;;;;;;;17.65;55.65;101490.82;1732128;82;21051;-49
2021/10/22 06:41:25;;;;;;;11.63;10.53;;;;;;;17.83;54.99;101494.03;1733280;82;21055;-50
2021/10/22 06:43:51;;;;;;;11.70;10.53;;;;;;;17.99;54.47;101494.75;1732760;82;20983;-48
2021/10/22 06:46:20;;;;;;;12.50;10.30;;;;;;;18.11;54.19;101494.25;1727191;82;20991;-50
2021/10/22 06:48:47;;;;;;;12.88;10.23;;;;;;;18.22;53.97;101497.27;1735663;82;21023;-48
2021/10/22 06:51:15;;;;;;;16.45;11.93;;;;;;;18.32;53.77;101499.95;1734113;82;21007;-50
2021/10/22 06:53:43;;;;;;;18.92;13.35;;;;;;;18.42;53.54;101503.91;1733058;82;21046;-50
2021/10/22 06:56:10;;;;;;;20.50;13.53;;;;;;;18.50;53.36;101503.16;1731538;82;21026;-51
2021/10/22 06:58:37;;;;;;;15.95;12.05;;;;;;;18.58;53.24;101505.00;1731623;82;21034;-51
2021/10/22 07:01:04;;;;;;;12.37;10.80;;;;;;;18.67;53.08;101507.22;1737805;82;21546;-50
2021/10/22 07:03:39;;;;;;;12.47;10.13;;;;;;;18.75;52.99;101505.14;1734389;82;21051;-50
2021/10/22 07:08:27;;;;;;;11.33;9.75;;;;;;;18.90;52.75;101508.89;1733046;82;21534;-50
2021/10/22 07:10:53;;;;;;;10.32;9.33;;;;;;;18.96;52.58;101509.45;1734970;82;21007;-49
2021/10/22 07:13:23;;;;;;;11.90;8.78;;;;;;;19.04;52.44;101511.28;1734963;82;21514;-49
2021/10/22 07:15:50;;;;;;;12.98;10.25;;;;;;;19.09;52.31;101515.91;1720420;82;21390;-50
2021/10/22 07:18:16;;;;;;;18.23;12.10;;;;;;;19.18;51.91;101507.59;1734086;82;21058;-52
2021/10/22 07:20:43;;;;;;;19.77;13.55;;;;;;;19.23;51.27;101505.58;1734768;82;21030;-51
2021/10/22 07:23:11;;;;;;;16.17;11.70;;;;;;;19.30;51.16;101508.80;1735851;82;21520;-51
2021/10/22 07:25:40;;;;;;;15.55;11.08;;;;;;;19.35;51.05;101505.05;1735684;82;21401;-51
2021/10/22 07:28:13;;;;;;;15.72;10.43;;;;;;;19.42;50.85;101511.77;1728838;82;20999;-49
2021/10/22 07:30:44;;;;;;;9.90;8.90;;;;;;;19.48;50.45;101514.13;1735956;82;21054;-49
2021/10/22 07:33:12;;;;;;;13.18;10.25;;;;;;;19.53;50.04;101515.69;1732718;82;21007;-48
2021/10/22 07:35:41;;;;;;;13.18;9.48;;;;;;;19.55;49.54;101513.83;1734717;82;21014;-50
2021/10/22 07:38:11;;;;;;;10.60;8.83;;;;;;;19.60;49.13;101517.12;1737480;81;21057;-49
2021/10/22 07:40:40;;;;;;;;;;;;;;;19.63;48.72;101515.64;1740735;82;21062;-48
2021/10/22 07:43:07;;;;;;;11.03;8.60;;;;;;;19.68;48.48;101517.13;1680982;85;20123;-50
2021/10/22 07:45:34;;;;;;;9.48;8.58;;;;;;;19.73;48.31;101518.24;1683552;85;21070;-49
2021/10/22 07:48:02;;;;;;;9.95;8.68;;;;;;;19.76;48.05;101518.97;1682060;85;21082;-49
2021/10/22 07:50:29;;;;;;;11.20;8.25;;;;;;;19.81;48.00;101521.37;1683354;85;21055;-49
2021/10/22 07:52:56;;;;;;;9.68;8.75;;;;;;;19.84;47.91;101519.46;1683713;85;21031;-49
2021/10/22 07:55:23;;;;;;;9.80;8.80;;;;;;;19.88;47.68;101515.74;1677526;85;21015;-51
2021/10/22 07:57:50;;;;;;;9.68;8.10;;;;;;;19.91;47.63;101517.36;1683289;85;21621;-48
2021/10/22 08:00:17;;;;;;;8.98;8.18;;;;;;;19.93;47.73;101516.36;1683417;85;21019;-51
2021/10/22 08:02:44;;;;;;;9.58;8.48;;;;;;;19.98;47.59;101513.50;1683203;85;21103;-49
2021/10/22 08:05:11;;;;;;;10.90;8.68;;;;;;;20.01;47.36;101512.05;1683501;85;21034;-49
2021/10/22 08:07:38;;;;;;;9.68;8.45;;;;;;;20.08;47.40;101508.16;1671272;85;21042;-49
2021/10/22 08:10:06;;;;;;;9.50;8.60;;;;;;;20.14;47.44;101503.89;1683796;85;20967;-48
2021/10/22 08:12:34;;;;;;;9.45;8.55;;;;;;;20.21;47.62;101494.77;1683325;85;21053;-50
2021/10/22 08:15:01;;;;;;;9.35;8.45;;;;;;;20.27;47.78;101499.75;1683364;85;21015;-49
2021/10/22 08:17:27;;;;;;;11.60;8.73;;;;;;;20.33;47.74;101502.09;1683403;85;21527;-50
2021/10/22 08:19:58;;;;;;;9.45;8.53;;;;;;;20.40;47.82;101503.50;1683242;85;20996;-48
2021/10/22 08:22:28;;;;;;;10.38;9.38;;;;;;;20.46;47.71;101512.90;1686079;84;21574;-49
2021/10/22 08:25:00;;;;;;;9.10;8.00;;;;;;;20.50;47.64;101511.81;1683550;85;21070;-49
2021/10/22 08:27:32;;;;;;;10.75;8.30;;;;;;;20.39;47.95;101514.99;1683255;85;21015;-50
2021/10/22 08:29:59;;;;;;;9.13;8.23;;;;;;;20.60;47.42;101503.80;1677793;85;21557;-50
2021/10/22 08:32:29;;;;;;;10.08;8.58;;;;;;;20.68;47.14;101506.44;1683386;85;20984;-50
2021/10/22 08:34:55;;;;;;;11.73;9.73;;;;;;;20.78;47.29;101512.09;1683347;85;21491;-47
2021/10/22 08:37:23;;;;;;;10.43;8.83;;;;;;;20.84;47.63;101503.38;1683416;85;21004;-49
2021/10/22 08:39:53;;;;;;;9.00;8.10;;;;;;;20.95;47.69;101507.66;1683263;85;21098;-51
2021/10/22 08:42:22;;;;;;;12.60;8.90;;;;;;;21.04;47.31;101509.83;1683325;85;21050;-50
2021/10/22 08:44:56;;;;;;;14.73;9.25;;;;;;;21.15;47.85;101506.61;1683744;85;21082;-49
2021/10/22 08:47:32;;;;;;;14.60;10.70;;;;;;;21.24;47.92;101506.59;1737458;82;21070;-48
2021/10/22 08:50:05;;;;;;;12.43;9.65;;;;;;;21.18;48.36;101510.89;1734796;82;21039;-50
2021/10/22 08:52:31;;;;;;;11.25;10.15;;;;;;;21.34;48.06;101506.48;1735860;81;21531;-50
2021/10/22 08:55:00;;;;;;;11.35;10.13;;;;;;;21.42;47.90;101502.48;1734946;82;21046;-49
2021/10/22 08:57:27;;;;;;;15.58;11.43;;;;;;;21.46;48.05;101507.13;1735476;82;21022;-47
2021/10/22 08:59:57;;;;;;;11.43;10.32;;;;;;;21.48;48.42;101503.46;1736404;82;21034;-49
2021/10/22 09:02:25;;;;;;;12.78;11.35;;;;;;;21.49;48.74;101510.95;1732197;82;21078;-49
2021/10/22 09:04:59;;;;;;;18.87;11.57;;;;;;;21.49;49.09;101511.80;1734356;82;21049;-51
2021/10/22 09:07:47;;;;;;;15.05;11.60;;;;;;;21.51;49.06;101511.72;1735320;82;20967;-48
2021/10/22 09:10:30;;;;;;;15.28;10.72;;;;;;;21.49;48.72;101518.89;1736584;82;21527;-49
2021/10/22 09:13:02;;;;;;;13.30;10.80;;;;;;;21.49;48.33;101514.92;1737117;82;21042;-48
2021/10/22 09:15:37;;;;;;;12.82;11.28;;;;;;;21.48;48.19;101519.81;1721408;82;21025;-51
2021/10/22 09:20:53;;;;;;;18.62;11.93;;;;;;;21.43;47.84;101517.91;1599540;90;21074;-49
2021/10/22 09:23:26;;;;;;;14.18;12.68;;;;;;;21.42;48.40;101513.06;1599243;90;21110;-48
2021/10/22 09:25:54;;;;;;;15.32;12.18;;;;;;;21.39;49.00;101509.74;1599406;90;21106;-50
2021/10/22 09:28:27;;;;;;;14.28;11.57;;;;;;;21.39;49.37;101515.03;1599562;90;21588;-47
2021/10/22 09:30:55;;;;;;;13.32;12.03;;;;;;;21.38;49.61;101514.64;1599624;90;21012;-47
2021/10/22 09:33:24;;;;;;;19.05;12.58;;;;;;;21.39;49.96;101516.36;1573558;90;21122;-49
2021/10/22 09:35:54;;;;;;;14.87;13.35;;;;;;;21.39;50.06;101505.77;1601718;89;21595;-48
2021/10/22 09:38:27;;;;;;;31.07;15.70;;;;;;;21.40;50.31;101512.30;1593525;89;21104;-47
2021/10/22 09:41:07;;;;;;;14.98;13.00;;;;;;;21.41;50.71;101503.89;1604410;89;21208;-52
2021/10/22 09:43:41;;;;;;;16.75;13.20;;;;;;;21.43;50.81;101500.20;1604359;89;21117;-50
2021/10/22 09:46:21;;;;;;;22.27;15.15;;;;;;;21.47;50.81;101506.20;1604422;89;21106;-50
2021/10/22 09:48:51;;;;;;;18.23;13.35;;;;;;;21.49;50.82;101508.30;1604474;89;21514;-50
2021/10/22 09:51:27;;;;;;;17.67;14.13;;;;;;;21.50;50.73;101504.70;1604368;89;21027;-49
2021/10/22 09:53:57;;;;;;;15.70;13.72;;;;;;;21.52;50.68;101505.46;1604721;89;21015;-50
2021/10/22 09:56:25;;;;;;;16.52;13.62;;;;;;;21.54;50.63;101503.58;1604492;89;21078;-51
2021/10/22 09:59:07;;;;;;;16.57;13.83;;;;;;;21.58;50.67;101504.66;1604480;89;21061;-51
2021/10/22 10:01:39;;;;;;;18.62;14.43;;;;;;;21.60;50.56;101500.13;1604326;89;21042;-50
2021/10/22 10:04:07;;;;;;;16.97;13.72;;;;;;;21.61;50.29;101499.67;1596084;89;21522;-48
2021/10/22 10:06:39;;;;;;;18.57;14.98;;;;;;;21.61;50.28;101500.99;1603737;89;21631;-51
2021/10/22 10:09:08;;;;;;;18.92;14.23;;;;;;;21.63;50.36;101508.38;1644033;86;21044;-51
2021/10/22 10:11:42;;;;;;;16.27;14.10;;;;;;;21.61;50.44;101500.53;1615118;89;21590;-52
2021/10/22 10:14:12;;;;;;;15.55;13.93;;;;;;;21.63;50.41;101500.44;1539740;93;21585;-52
2021/10/22 10:16:38;;;;;;;17.30;15.05;;;;;;;21.61;50.50;101497.02;1541052;91;21089;-50
2021/10/22 10:19:23;;;;;;;17.45;15.43;;;;;;;21.62;50.36;101490.77;1560840;91;21087;-48
2021/10/22 10:22:12;;;;;;;15.78;14.15;;;;;;;21.61;50.40;101491.73;1500558;95;21132;-51
2021/10/22 10:24:48;;;;;;;17.30;14.45;;;;;;;21.62;50.52;101494.74;1499317;94;21606;-50
2021/10/22 10:27:19;;;;;;;14.93;13.32;;;;;;;21.63;50.56;101496.00;1518721;93;21094;-51
2021/10/22 10:29:55;;;;;;;18.82;14.13;;;;;;;21.66;50.40;101502.90;1498192;95;21070;-49
2021/10/22 10:32:23;;;;;;;16.95;14.00;;;;;;;21.68;50.50;101506.31;1499492;95;21097;-48
2021/10/22 10:34:52;;;;;;;15.68;13.18;;;;;;;21.71;50.50;101504.84;1500002;95;21094;-49
2021/10/22 10:37:32;;;;;;;22.48;14.47;;;;;;;21.73;50.30;101500.30;1502301;95;21054;-48
2021/10/22 10:40:04;;;;;;;18.35;14.80;;;;;;;21.75;50.36;101494.45;1501672;95;21164;-49
2021/10/22 10:42:36;;;;;;;16.93;14.68;;;;;;;21.76;50.36;101493.53;1501924;95;21159;-55
2021/10/22 10:45:29;;;;;;;16.70;14.23;;;;;;;21.77;50.35;101494.76;1502129;95;21117;-49
2021/10/22 10:48:13;;;;;;;15.25;13.72;;;;;;;21.78;50.31;101492.97;1501526;95;21119;-50
2021/10/22 10:51:03;;;;;;;16.37;14.20;;;;;;;21.80;50.32;101487.11;1501859;95;21634;-52
2021/10/22 10:53:34;;;;;;;15.18;13.28;;;;;;;21.83;50.29;101477.68;1504963;93;21117;-50
2021/10/22 10:56:09;;;;;;;16.55;14.93;;;;;;;21.84;50.19;101475.43;1501762;95;21073;-51
2021/10/22 10:58:44;;;;;;;16.45;14.85;;;;;;;21.85;50.12;101465.20;1496045;95;21125;-51
2021/10/22 11:01:29;;;;;;;19.10;15.23;;;;;;;21.84;50.01;101471.45;1503619;95;21089;-50
2021/10/22 11:03:56;;;;;;;18.12;15.98;;;;;;;21.84;50.13;101480.73;1472033;96;21556;-49
2021/10/22 11:06:47;;;;;;;19.10;15.93;;;;;;;21.79;50.14;101462.41;1471673;97;21072;-48
2021/10/22 11:09:43;;;;;;;19.52;15.80;;;;;;;21.77;50.27;101474.02;1474516;97;21213;-52
2021/10/22 11:12:08;;;;;;;16.70;15.10;;;;;;;21.74;50.50;101476.38;1501343;94;21591;-50
2021/10/22 11:14:57;;;;;;;15.78;14.35;;;;;;;21.72;50.45;101465.50;1517334;92;21104;-49
2021/10/22 11:17:30;;;;;;;17.48;14.98;;;;;;;21.72;50.40;101465.50;1529402;92;21114;-51
2021/10/22 11:19:58;;;;;;;16.97;15.28;;;;;;;21.72;50.32;101468.15;1605341;89;21070;-49
2021/10/22 11:22:28;;;;;;;20.23;15.48;;;;;;;21.73;50.33;101467.20;1662254;86;21074;-49
2021/10/22 11:24:54;;;;;;;18.30;14.83;;;;;;;21.73;50.49;101471.16;1660536;86;20999;-50
2021/10/22 11:27:22;;;;;;;17.12;15.35;;;;;;;21.71;50.59;101466.42;1660802;86;21011;-50
2021/10/22 11:29:52;;;;;;;18.35;15.60;;;;;;;21.72;50.63;101464.18;1660748;86;21022;-47
2021/10/22 11:32:21;;;;;;;16.95;14.53;;;;;;;21.74;50.64;101464.95;1660723;86;21074;-51